createdAt,value
2017-11-22T00:00:51.909Z,97.65
2017-11-22T00:01:51.969Z,96.89
2017-11-22T00:02:51.850Z,97.46
2017-11-22T00:03:51.977Z,97.27
2017-11-22T00:04:51.791Z,97.75
2017-11-22T00:05:51.890Z,97.27
2017-11-22T00:06:51.742Z,97.46
2017-11-22T00:07:51.803Z,97.46
2017-11-22T00:08:51.685Z,97.46
2017-11-22T00:09:51.838Z,97.75
2017-11-22T00:10:51.635Z,97.46
2017-11-22T00:11:51.726Z,97.17
2017-11-22T00:12:51.577Z,97.17
2017-11-22T00:13:51.639Z,97.27
2017-11-22T00:14:51.529Z,97.08
2017-11-22T00:15:51.652Z,97.46
2017-11-22T00:16:51.468Z,97.17
2017-11-22T00:17:51.561Z,97.65
2017-11-22T00:18:51.411Z,97.17
2017-11-22T00:19:51.576Z,97.84
2017-11-22T00:20:51.366Z,97.36
2017-11-22T00:21:51.671Z,97.75
2017-11-22T00:22:51.302Z,96.80
2017-11-22T00:23:51.401Z,97.56
2017-11-22T00:24:51.247Z,97.36
2017-11-22T00:25:51.416Z,97.75
2017-11-22T00:26:51.201Z,97.17
2017-11-22T00:27:51.339Z,97.27
2017-11-22T00:28:51.141Z,97.08
2017-11-22T00:29:51.235Z,97.27
2017-11-22T00:30:51.087Z,96.51
2017-11-22T00:31:51.247Z,97.46
2017-11-22T00:32:51.038Z,97.17
2017-11-22T00:33:51.160Z,97.46
2017-11-22T00:34:50.975Z,97.36
2017-11-22T00:35:51.073Z,97.17
2017-11-22T00:36:50.924Z,97.46
2017-11-22T00:37:51.087Z,97.36
2017-11-22T00:38:50.874Z,97.08
2017-11-22T00:39:50.998Z,97.56
2017-11-22T00:40:50.812Z,97.75
2017-11-22T00:41:50.909Z,97.94
2017-11-22T00:42:50.761Z,97.94
2017-11-22T00:43:50.923Z,97.94
2017-11-22T00:44:50.708Z,98.03
2017-11-22T00:45:50.834Z,97.36
2017-11-22T00:46:50.646Z,97.27
2017-11-22T00:47:50.745Z,97.56
2017-11-22T00:48:50.596Z,97.46
2017-11-22T00:49:51.682Z,97.27
2017-11-22T00:50:50.543Z,97.75
2017-11-22T00:51:50.670Z,97.46
2017-11-22T00:52:50.495Z,97.46
2017-11-22T00:53:50.579Z,97.36
2017-11-22T00:54:50.428Z,97.08
2017-11-22T00:55:50.599Z,97.27
2017-11-22T00:56:50.380Z,97.08
2017-11-22T00:57:50.507Z,96.60
2017-11-22T00:58:50.323Z,97.65
2017-11-22T00:59:50.417Z,97.36
2017-11-22T01:00:50.266Z,97.84
2017-11-22T01:01:50.431Z,97.75
2017-11-22T01:02:50.215Z,97.17
2017-11-22T01:03:50.239Z,97.17
2017-11-22T01:04:50.160Z,97.36
2017-11-22T01:05:50.151Z,96.89
2017-11-22T01:06:50.103Z,97.27
2017-11-22T01:07:50.165Z,97.84
2017-11-22T01:08:50.051Z,97.65
2017-11-22T01:09:50.082Z,97.17
2017-11-22T01:10:49.997Z,97.32
2017-11-22T01:11:49.987Z,96.75
2017-11-22T01:12:49.939Z,96.84
2017-11-22T01:13:50.004Z,96.94
2017-11-22T01:14:49.885Z,96.84
2017-11-22T01:15:49.912Z,96.94
2017-11-22T01:16:49.837Z,97.32
2017-11-22T01:17:49.932Z,96.94
2017-11-22T01:18:49.772Z,97.13
2017-11-22T01:19:49.844Z,97.17
2017-11-22T01:20:49.722Z,97.27
2017-11-22T01:21:49.748Z,96.80
2017-11-22T01:22:49.673Z,97.32
2017-11-22T01:23:49.766Z,97.51
2017-11-22T01:24:49.612Z,97.46
2017-11-22T01:25:49.676Z,97.70
2017-11-22T01:26:49.561Z,97.13
2017-11-22T01:27:49.587Z,97.41
2017-11-22T01:28:49.507Z,97.65
2017-11-22T01:29:49.604Z,97.22
2017-11-22T01:30:49.449Z,97.13
2017-11-22T01:31:49.515Z,97.03
2017-11-22T01:32:49.397Z,96.84
2017-11-22T01:33:49.423Z,96.84
2017-11-22T01:34:49.343Z,96.65
2017-11-22T01:35:49.437Z,96.84
2017-11-22T01:36:49.286Z,96.94
2017-11-22T01:37:49.349Z,96.75
2017-11-22T01:38:49.229Z,96.84
2017-11-22T01:39:49.261Z,96.70
2017-11-22T01:40:49.184Z,96.94
2017-11-22T01:41:49.274Z,97.13
2017-11-22T01:42:49.124Z,96.94
2017-11-22T01:43:49.289Z,96.65
2017-11-22T01:44:49.067Z,96.75
2017-11-22T01:45:49.097Z,96.36
2017-11-22T01:46:49.018Z,96.65
2017-11-22T01:47:49.110Z,96.36
2017-11-22T01:48:48.959Z,96.65
2017-11-22T01:49:49.028Z,96.56
2017-11-22T01:50:48.903Z,96.36
2017-11-22T01:51:48.936Z,96.17
2017-11-22T01:52:48.849Z,96.17
2017-11-22T01:53:48.951Z,96.36
2017-11-22T01:54:48.806Z,96.36
2017-11-22T01:55:48.863Z,96.36
2017-11-22T01:56:48.739Z,96.56
2017-11-22T01:57:48.773Z,96.27
2017-11-22T01:58:48.693Z,96.36
2017-11-22T01:59:48.784Z,96.36
2017-11-22T02:00:48.636Z,96.36
2017-11-22T02:01:48.699Z,96.46
2017-11-22T02:02:48.577Z,96.36
2017-11-22T02:03:48.716Z,96.46
2017-11-22T02:04:48.526Z,96.36
2017-11-22T02:05:48.633Z,96.65
2017-11-22T02:06:48.471Z,96.75
2017-11-22T02:07:48.541Z,96.75
2017-11-22T02:08:48.415Z,96.46
2017-11-22T02:09:48.553Z,96.27
2017-11-22T02:10:48.370Z,96.27
2017-11-22T02:11:48.463Z,96.17
2017-11-22T02:12:48.308Z,95.98
2017-11-22T02:13:48.374Z,96.27
2017-11-22T02:14:48.255Z,96.65
2017-11-22T02:15:48.390Z,96.46
2017-11-22T02:16:48.198Z,96.17
2017-11-22T02:17:48.306Z,96.17
2017-11-22T02:18:48.145Z,96.56
2017-11-22T02:19:48.216Z,96.17
2017-11-22T02:20:48.094Z,96.36
2017-11-22T02:21:48.230Z,95.70
2017-11-22T02:22:48.037Z,96.27
2017-11-22T02:23:48.138Z,96.36
2017-11-22T02:24:47.983Z,95.98
2017-11-22T02:25:48.047Z,96.17
2017-11-22T02:26:47.927Z,96.46
2017-11-22T02:27:48.065Z,96.08
2017-11-22T02:28:47.873Z,95.70
2017-11-22T02:29:47.975Z,96.27
2017-11-22T02:30:47.819Z,96.08
2017-11-22T02:31:47.887Z,95.70
2017-11-22T02:32:47.765Z,96.17
2017-11-22T02:33:47.903Z,96.46
2017-11-22T02:34:47.718Z,96.46
2017-11-22T02:35:47.814Z,96.27
2017-11-22T02:36:47.654Z,96.46
2017-11-22T02:37:47.723Z,95.70
2017-11-22T02:38:47.605Z,96.22
2017-11-22T02:39:47.868Z,96.03
2017-11-22T02:40:47.557Z,95.70
2017-11-22T02:41:47.647Z,95.89
2017-11-22T02:42:47.497Z,95.70
2017-11-22T02:43:47.662Z,95.79
2017-11-22T02:44:47.460Z,96.03
2017-11-22T02:45:47.581Z,96.27
2017-11-22T02:46:47.389Z,96.32
2017-11-22T02:47:47.484Z,96.22
2017-11-22T02:48:47.336Z,96.36
2017-11-22T02:49:47.500Z,96.56
2017-11-22T02:50:47.275Z,96.27
2017-11-22T02:51:47.410Z,96.36
2017-11-22T02:52:47.226Z,96.60
2017-11-22T02:53:47.321Z,95.79
2017-11-22T02:54:47.169Z,95.79
2017-11-22T02:55:47.335Z,95.41
2017-11-22T02:56:47.110Z,95.32
2017-11-22T02:57:47.241Z,95.32
2017-11-22T02:58:47.064Z,95.51
2017-11-22T02:59:47.161Z,95.89
2017-11-22T03:00:47.005Z,95.89
2017-11-22T03:01:47.169Z,95.51
2017-11-22T03:02:46.949Z,95.70
2017-11-22T03:03:47.077Z,95.32
2017-11-22T03:04:46.896Z,95.51
2017-11-22T03:05:46.994Z,95.32
2017-11-22T03:06:46.843Z,95.12
2017-11-22T03:07:47.003Z,95.70
2017-11-22T03:08:46.787Z,95.70
2017-11-22T03:09:46.919Z,95.32
2017-11-22T03:10:46.734Z,95.98
2017-11-22T03:11:46.831Z,95.22
2017-11-22T03:12:46.680Z,95.70
2017-11-22T03:13:46.845Z,95.51
2017-11-22T03:14:46.626Z,95.61
2017-11-22T03:15:46.755Z,95.51
2017-11-22T03:16:46.577Z,95.32
2017-11-22T03:17:46.670Z,95.22
2017-11-22T03:18:46.523Z,94.84
2017-11-22T03:19:46.681Z,95.22
2017-11-22T03:20:46.463Z,94.84
2017-11-22T03:21:46.591Z,94.93
2017-11-22T03:22:46.410Z,94.74
2017-11-22T03:23:46.503Z,94.93
2017-11-22T03:24:46.359Z,95.22
2017-11-22T03:25:46.518Z,94.93
2017-11-22T03:26:46.303Z,95.22
2017-11-22T03:27:47.452Z,95.22
2017-11-22T03:28:46.247Z,95.03
2017-11-22T03:29:46.341Z,94.93
2017-11-22T03:30:46.197Z,94.56
2017-11-22T03:31:46.251Z,94.93
2017-11-22T03:32:46.137Z,94.93
2017-11-22T03:33:46.165Z,95.03
2017-11-22T03:34:46.089Z,95.12
2017-11-22T03:35:46.175Z,95.03
2017-11-22T03:36:46.037Z,94.56
2017-11-22T03:37:46.088Z,94.74
2017-11-22T03:38:45.976Z,94.46
2017-11-22T03:39:46.003Z,94.84
2017-11-22T03:40:45.919Z,94.84
2017-11-22T03:41:46.014Z,94.37
2017-11-22T03:42:45.875Z,94.46
2017-11-22T03:43:45.924Z,94.46
2017-11-22T03:44:45.818Z,94.37
2017-11-22T03:45:45.838Z,94.84
2017-11-22T03:46:45.759Z,94.93
2017-11-22T03:47:45.853Z,95.22
2017-11-22T03:48:45.702Z,95.03
2017-11-22T03:49:45.764Z,94.93
2017-11-22T03:50:45.666Z,94.84
2017-11-22T03:51:45.672Z,94.46
2017-11-22T03:52:45.598Z,94.17
2017-11-22T03:53:45.695Z,94.46
2017-11-22T03:54:45.540Z,94.17
2017-11-22T03:55:45.609Z,94.46
2017-11-22T03:56:45.488Z,94.74
2017-11-22T03:57:45.515Z,94.27
2017-11-22T03:58:45.445Z,94.17
2017-11-22T03:59:45.523Z,93.98
2017-11-22T04:00:45.384Z,94.37
2017-11-22T04:01:45.432Z,94.27
2017-11-22T04:02:45.324Z,94.37
2017-11-22T04:03:45.347Z,94.08
2017-11-22T04:04:45.272Z,94.27
2017-11-22T04:05:45.359Z,94.17
2017-11-22T04:06:45.219Z,94.17
2017-11-22T04:07:45.272Z,94.46
2017-11-22T04:08:45.160Z,94.17
2017-11-22T04:09:45.286Z,94.27
2017-11-22T04:10:45.111Z,94.37
2017-11-22T04:11:45.196Z,94.27
2017-11-22T04:12:45.055Z,94.37
2017-11-22T04:13:45.110Z,94.74
2017-11-22T04:14:45.003Z,94.93
2017-11-22T04:15:45.185Z,95.22
2017-11-22T04:16:44.952Z,94.93
2017-11-22T04:17:45.049Z,94.27
2017-11-22T04:18:44.892Z,94.46
2017-11-22T04:19:44.945Z,94.37
2017-11-22T04:20:44.838Z,94.84
2017-11-22T04:21:44.958Z,94.93
2017-11-22T04:22:44.787Z,94.37
2017-11-22T04:23:44.871Z,94.27
2017-11-22T04:24:44.730Z,94.27
2017-11-22T04:25:44.783Z,94.17
2017-11-22T04:26:44.677Z,94.37
2017-11-22T04:27:44.793Z,94.56
2017-11-22T04:28:44.621Z,94.17
2017-11-22T04:29:44.708Z,94.56
2017-11-22T04:30:44.564Z,94.37
2017-11-22T04:31:44.618Z,94.17
2017-11-22T04:32:44.521Z,94.17
2017-11-22T04:33:44.646Z,94.37
2017-11-22T04:34:44.457Z,94.08
2017-11-22T04:35:44.543Z,94.08
2017-11-22T04:36:44.402Z,94.27
2017-11-22T04:37:44.456Z,94.08
2017-11-22T04:38:44.353Z,94.27
2017-11-22T04:39:44.471Z,94.27
2017-11-22T04:40:44.297Z,94.46
2017-11-22T04:41:44.383Z,94.37
2017-11-22T04:42:44.241Z,94.93
2017-11-22T04:43:44.289Z,94.37
2017-11-22T04:44:44.189Z,94.56
2017-11-22T04:45:44.308Z,94.27
2017-11-22T04:46:44.137Z,94.46
2017-11-22T04:47:44.218Z,94.37
2017-11-22T04:48:44.083Z,94.74
2017-11-22T04:49:44.129Z,94.37
2017-11-22T04:50:44.027Z,94.46
2017-11-22T04:51:44.145Z,94.17
2017-11-22T04:52:43.969Z,94.27
2017-11-22T04:53:44.056Z,94.74
2017-11-22T04:54:43.920Z,94.17
2017-11-22T04:55:44.068Z,93.98
2017-11-22T04:56:43.866Z,94.27
2017-11-22T04:57:43.979Z,94.27
2017-11-22T04:58:43.810Z,94.56
2017-11-22T04:59:43.895Z,94.08
2017-11-22T05:00:43.759Z,94.17
2017-11-22T05:01:43.904Z,94.46
2017-11-22T05:02:43.700Z,94.46
2017-11-22T05:03:43.816Z,94.37
2017-11-22T05:04:43.651Z,94.17
2017-11-22T05:05:43.728Z,94.27
2017-11-22T05:06:43.589Z,94.17
2017-11-22T05:07:43.741Z,94.27
2017-11-22T05:08:43.543Z,94.27
2017-11-22T05:09:43.653Z,94.17
2017-11-22T05:10:43.493Z,94.37
2017-11-22T05:11:43.565Z,93.98
2017-11-22T05:12:43.437Z,94.17
2017-11-22T05:13:43.576Z,94.56
2017-11-22T05:14:43.378Z,94.37
2017-11-22T05:15:43.489Z,94.56
2017-11-22T05:16:43.325Z,94.27
2017-11-22T05:17:43.403Z,94.65
2017-11-22T05:18:43.274Z,94.56
2017-11-22T05:19:43.414Z,94.17
2017-11-22T05:20:43.214Z,94.17
2017-11-22T05:21:43.325Z,94.27
2017-11-22T05:22:43.162Z,94.46
2017-11-22T05:23:43.237Z,93.98
2017-11-22T05:24:43.110Z,94.46
2017-11-22T05:25:43.250Z,94.74
2017-11-22T05:26:43.051Z,94.65
2017-11-22T05:27:43.188Z,94.65
2017-11-22T05:28:42.997Z,94.65
2017-11-22T05:29:43.074Z,93.98
2017-11-22T05:30:42.951Z,93.98
2017-11-22T05:31:43.090Z,94.27
2017-11-22T05:32:42.890Z,93.98
2017-11-22T05:33:43.002Z,94.46
2017-11-22T05:34:42.858Z,94.84
2017-11-22T05:35:43.017Z,94.17
2017-11-22T05:36:42.781Z,94.56
2017-11-22T05:37:42.922Z,94.27
2017-11-22T05:38:42.748Z,94.27
2017-11-22T05:39:42.835Z,94.46
2017-11-22T05:40:42.672Z,94.46
2017-11-22T05:41:42.852Z,94.46
2017-11-22T05:42:42.618Z,94.74
2017-11-22T05:43:42.762Z,94.56
2017-11-22T05:44:42.567Z,94.56
2017-11-22T05:45:42.672Z,94.65
2017-11-22T05:46:42.514Z,94.46
2017-11-22T05:47:42.684Z,94.37
2017-11-22T05:48:42.456Z,94.46
2017-11-22T05:49:42.597Z,94.17
2017-11-22T05:50:42.401Z,94.37
2017-11-22T05:51:42.509Z,94.46
2017-11-22T05:52:42.346Z,94.27
2017-11-22T05:53:42.529Z,94.74
2017-11-22T05:54:42.296Z,94.37
2017-11-22T05:55:42.321Z,94.17
2017-11-22T05:56:42.239Z,94.27
2017-11-22T05:57:42.245Z,94.27
2017-11-22T05:58:42.183Z,94.37
2017-11-22T05:59:42.262Z,93.88
2017-11-22T06:00:42.138Z,94.37
2017-11-22T06:01:42.169Z,94.56
2017-11-22T06:02:42.081Z,94.37
2017-11-22T06:03:42.082Z,94.56
2017-11-22T06:04:42.021Z,94.37
2017-11-22T06:05:42.095Z,94.08
2017-11-22T06:06:41.976Z,94.46
2017-11-22T06:07:42.028Z,94.27
2017-11-22T06:08:41.915Z,94.27
2017-11-22T06:09:41.916Z,94.27
2017-11-22T06:10:41.859Z,94.08
2017-11-22T06:11:41.935Z,94.17
2017-11-22T06:12:41.810Z,94.37
2017-11-22T06:13:41.842Z,94.17
2017-11-22T06:14:41.755Z,94.08
2017-11-22T06:15:41.858Z,93.98
2017-11-22T06:16:41.697Z,94.17
2017-11-22T06:17:41.770Z,94.37
2017-11-22T06:18:41.642Z,94.08
2017-11-22T06:19:41.694Z,94.17
2017-11-22T06:20:41.712Z,94.27
2017-11-22T06:21:41.692Z,94.27
2017-11-22T06:22:41.532Z,94.37
2017-11-22T06:23:41.620Z,94.17
2017-11-22T06:24:41.476Z,94.27
2017-11-22T06:25:41.516Z,94.46
2017-11-22T06:26:41.429Z,94.37
2017-11-22T06:27:41.529Z,94.27
2017-11-22T06:28:41.371Z,94.27
2017-11-22T06:29:41.438Z,94.17
2017-11-22T06:30:41.322Z,94.56
2017-11-22T06:31:41.358Z,94.56
2017-11-22T06:32:41.265Z,94.27
2017-11-22T06:33:41.367Z,94.17
2017-11-22T06:34:41.212Z,94.17
2017-11-22T06:35:41.278Z,94.74
2017-11-22T06:36:41.159Z,93.98
2017-11-22T06:37:41.155Z,94.37
2017-11-22T06:38:41.103Z,94.27
2017-11-22T06:39:41.200Z,93.79
2017-11-22T06:40:41.046Z,94.17
2017-11-22T06:41:41.115Z,93.88
2017-11-22T06:42:40.996Z,94.08
2017-11-22T06:43:41.057Z,94.46
2017-11-22T06:44:40.943Z,94.37
2017-11-22T06:45:41.050Z,93.60
2017-11-22T06:46:40.881Z,93.51
2017-11-22T06:47:40.952Z,94.08
2017-11-22T06:48:40.831Z,93.88
2017-11-22T06:49:40.864Z,93.51
2017-11-22T06:50:40.777Z,93.51
2017-11-22T06:51:40.874Z,93.51
2017-11-22T06:52:40.717Z,94.37
2017-11-22T06:53:40.790Z,94.17
2017-11-22T06:54:40.671Z,94.08
2017-11-22T06:55:40.801Z,93.98
2017-11-22T06:56:40.622Z,94.37
2017-11-22T06:57:40.716Z,94.08
2017-11-22T06:58:40.560Z,94.27
2017-11-22T06:59:40.626Z,94.17
2017-11-22T07:00:40.507Z,94.56
2017-11-22T07:01:40.638Z,94.56
2017-11-22T07:02:40.460Z,94.27
2017-11-22T07:03:40.550Z,94.08
2017-11-22T07:04:40.402Z,94.27
2017-11-22T07:05:40.463Z,94.46
2017-11-22T07:06:40.345Z,94.37
2017-11-22T07:07:40.476Z,94.08
2017-11-22T07:08:40.291Z,94.56
2017-11-22T07:09:40.387Z,94.08
2017-11-22T07:10:40.235Z,94.27
2017-11-22T07:11:40.304Z,94.17
2017-11-22T07:12:40.181Z,93.88
2017-11-22T07:13:40.323Z,94.08
2017-11-22T07:14:40.127Z,94.27
2017-11-22T07:15:40.225Z,94.46
2017-11-22T07:16:40.076Z,94.37
2017-11-22T07:17:40.133Z,94.17
2017-11-22T07:18:40.020Z,94.27
2017-11-22T07:19:40.152Z,94.37
2017-11-22T07:20:39.969Z,94.56
2017-11-22T07:21:40.061Z,94.17
2017-11-22T07:22:39.913Z,94.27
2017-11-22T07:23:39.980Z,94.27
2017-11-22T07:24:39.858Z,94.17
2017-11-22T07:25:39.985Z,93.51
2017-11-22T07:26:39.802Z,94.27
2017-11-22T07:27:39.897Z,93.88
2017-11-22T07:28:39.750Z,93.60
2017-11-22T07:29:39.809Z,93.98
2017-11-22T07:30:39.697Z,94.37
2017-11-22T07:31:39.822Z,93.60
2017-11-22T07:32:39.640Z,93.41
2017-11-22T07:33:39.733Z,93.88
2017-11-22T07:34:39.589Z,93.88
2017-11-22T07:35:39.752Z,94.08
2017-11-22T07:36:39.535Z,93.60
2017-11-22T07:37:39.657Z,94.17
2017-11-22T07:38:39.482Z,93.60
2017-11-22T07:39:39.577Z,93.93
2017-11-22T07:40:39.428Z,93.17
2017-11-22T07:41:39.591Z,93.60
2017-11-22T07:42:39.371Z,93.74
2017-11-22T07:43:39.499Z,94.17
2017-11-22T07:44:39.324Z,94.37
2017-11-22T07:45:39.408Z,93.70
2017-11-22T07:46:39.267Z,93.51
2017-11-22T07:47:39.427Z,93.93
2017-11-22T07:48:39.212Z,93.93
2017-11-22T07:49:39.341Z,94.37
2017-11-22T07:50:39.155Z,93.65
2017-11-22T07:51:39.248Z,93.51
2017-11-22T07:52:39.109Z,93.55
2017-11-22T07:53:39.262Z,93.12
2017-11-22T07:54:39.051Z,93.41
2017-11-22T07:55:39.173Z,93.22
2017-11-22T07:56:39.000Z,93.17
2017-11-22T07:57:39.080Z,93.12
2017-11-22T07:58:38.944Z,93.74
2017-11-22T07:59:39.097Z,93.46
2017-11-22T08:00:38.885Z,93.74
2017-11-22T08:01:39.011Z,93.41
2017-11-22T08:02:38.831Z,93.17
2017-11-22T08:03:38.919Z,93.22
2017-11-22T08:04:38.796Z,93.41
2017-11-22T08:05:38.935Z,93.36
2017-11-22T08:06:38.734Z,93.55
2017-11-22T08:07:38.844Z,94.17
2017-11-22T08:08:38.665Z,94.41
2017-11-22T08:09:38.855Z,93.55
2017-11-22T08:10:38.616Z,93.84
2017-11-22T08:11:38.772Z,93.51
2017-11-22T08:12:42.746Z,93.46
2017-11-22T08:13:42.690Z,92.98
2017-11-22T08:15:35.850Z,92.98
2017-11-22T08:16:35.645Z,92.41
2017-11-22T08:18:28.805Z,93.17
2017-11-22T08:19:28.601Z,93.36
2017-11-22T08:21:21.765Z,92.88
2017-11-22T08:22:21.555Z,93.55
2017-11-22T08:24:14.732Z,92.98
2017-11-22T08:25:14.511Z,93.27
2017-11-22T08:26:14.607Z,92.88
2017-11-22T08:27:14.463Z,93.17
2017-11-22T08:28:14.512Z,92.98
2017-11-22T08:29:14.407Z,93.08
2017-11-22T08:30:14.424Z,93.17
2017-11-22T08:31:14.349Z,93.36
2017-11-22T08:32:14.437Z,92.50
2017-11-22T08:33:14.300Z,92.98
2017-11-22T08:34:14.353Z,92.41
2017-11-22T08:35:14.249Z,93.08
2017-11-22T08:36:14.266Z,93.08
2017-11-22T08:37:14.189Z,92.50
2017-11-22T08:38:14.273Z,92.03
2017-11-22T08:39:14.144Z,92.12
2017-11-22T08:40:14.185Z,92.22
2017-11-22T08:41:14.090Z,92.03
2017-11-22T08:42:14.101Z,92.41
2017-11-22T08:43:14.034Z,92.41
2017-11-22T08:44:14.112Z,92.03
2017-11-22T08:45:13.976Z,92.12
2017-11-22T08:46:14.025Z,92.03
2017-11-22T08:47:13.925Z,91.93
2017-11-22T08:48:13.937Z,91.83
2017-11-22T08:49:13.875Z,92.03
2017-11-22T08:50:13.946Z,91.83
2017-11-22T08:51:13.833Z,92.03
2017-11-22T08:52:13.858Z,92.03
2017-11-22T08:53:13.763Z,92.32
2017-11-22T08:54:13.873Z,91.93
2017-11-22T08:55:13.714Z,92.22
2017-11-22T08:56:13.787Z,92.12
2017-11-22T08:57:13.657Z,92.12
2017-11-22T08:58:13.694Z,92.32
2017-11-22T08:59:13.603Z,91.74
2017-11-22T09:00:13.707Z,92.03
2017-11-22T09:01:13.550Z,92.03
2017-11-22T09:02:13.619Z,92.03
2017-11-22T09:03:13.499Z,92.03
2017-11-22T09:04:13.530Z,91.93
2017-11-22T09:05:13.447Z,92.03
2017-11-22T09:06:13.547Z,92.60
2017-11-22T09:07:13.394Z,92.60
2017-11-22T09:08:13.457Z,92.60
2017-11-22T09:09:13.335Z,92.03
2017-11-22T09:10:13.375Z,92.03
2017-11-22T09:11:13.281Z,92.12
2017-11-22T09:12:13.283Z,92.50
2017-11-22T09:13:13.284Z,92.41
2017-11-22T09:14:13.206Z,92.12
2017-11-22T09:15:13.200Z,91.93
2017-11-22T09:16:13.151Z,91.93
2017-11-22T09:17:13.213Z,91.83
2017-11-22T09:18:13.098Z,91.83
2017-11-22T09:19:13.226Z,91.46
2017-11-22T09:20:13.041Z,91.36
2017-11-22T09:21:13.151Z,91.93
2017-11-22T09:22:12.991Z,91.36
2017-11-22T09:23:13.046Z,90.50
2017-11-22T09:24:12.947Z,91.46
2017-11-22T09:25:12.970Z,91.64
2017-11-22T09:26:12.880Z,90.69
2017-11-22T09:27:12.872Z,90.98
2017-11-22T09:28:12.829Z,91.46
2017-11-22T09:29:12.888Z,91.46
2017-11-22T09:30:12.780Z,91.07
2017-11-22T09:31:12.798Z,91.07
2017-11-22T09:32:12.728Z,91.07
2017-11-22T09:33:12.713Z,91.74
2017-11-22T09:34:12.672Z,90.79
2017-11-22T09:35:12.723Z,90.31
2017-11-22T09:36:12.625Z,90.59
2017-11-22T09:37:12.634Z,89.83
2017-11-22T09:38:12.566Z,89.31
2017-11-22T09:39:12.653Z,89.02
2017-11-22T09:40:12.542Z,88.92
2017-11-22T09:41:12.562Z,89.40
2017-11-22T09:42:12.463Z,89.31
2017-11-22T09:43:12.474Z,89.40
2017-11-22T09:44:12.408Z,89.26
2017-11-22T09:45:12.487Z,89.88
2017-11-22T09:46:12.355Z,89.50
2017-11-22T09:47:12.399Z,89.88
2017-11-22T09:48:12.302Z,89.21
2017-11-22T09:49:12.309Z,89.31
2017-11-22T09:50:12.252Z,89.50
2017-11-22T09:51:12.323Z,88.68
2017-11-22T09:52:12.199Z,88.01
2017-11-22T09:53:12.237Z,86.96
2017-11-22T09:54:12.152Z,86.39
2017-11-22T09:55:12.145Z,86.05
2017-11-22T09:56:12.100Z,85.38
2017-11-22T09:57:12.160Z,85.10
2017-11-22T09:58:12.049Z,84.81
2017-11-22T09:59:12.076Z,83.51
2017-11-22T10:00:11.997Z,82.37
2017-11-22T10:01:12.090Z,82.18
2017-11-22T10:02:11.949Z,82.70
2017-11-22T10:03:11.998Z,82.51
2017-11-22T10:04:11.901Z,81.07
2017-11-22T10:05:11.908Z,80.69
2017-11-22T10:06:11.853Z,80.40
2017-11-22T10:07:11.923Z,80.79
2017-11-22T10:08:11.808Z,80.69
2017-11-22T10:09:11.831Z,81.03
2017-11-22T10:10:11.761Z,80.55
2017-11-22T10:11:11.744Z,81.13
2017-11-22T10:12:11.713Z,81.41
2017-11-22T10:13:11.757Z,82.37
2017-11-22T10:14:11.682Z,82.18
2017-11-22T10:15:11.670Z,82.46
2017-11-22T10:16:11.626Z,82.46
2017-11-22T10:17:11.683Z,82.32
2017-11-22T10:18:11.579Z,82.61
2017-11-22T10:19:11.594Z,82.90
2017-11-22T10:20:11.533Z,83.00
2017-11-22T10:21:11.612Z,82.46
2017-11-22T10:22:11.483Z,82.42
2017-11-22T10:23:11.519Z,82.18
2017-11-22T10:24:11.442Z,81.45
2017-11-22T10:25:11.439Z,79.00
2017-11-22T10:26:11.391Z,77.13
2017-11-22T10:27:11.449Z,75.87
2017-11-22T10:28:11.347Z,72.74
2017-11-22T10:29:11.363Z,71.82
2017-11-22T10:30:11.304Z,69.23
2017-11-22T10:31:11.372Z,69.93
2017-11-22T10:32:11.263Z,69.36
2017-11-22T10:33:11.278Z,68.53
2017-11-22T10:34:11.223Z,68.05
2017-11-22T10:35:11.303Z,67.12
2017-11-22T10:36:11.185Z,69.48
2017-11-22T10:37:11.204Z,71.17
2017-11-22T10:38:11.143Z,72.67
2017-11-22T10:39:11.224Z,73.15
2017-11-22T10:40:11.100Z,73.54
2017-11-22T10:41:11.132Z,73.24
2017-11-22T10:42:11.062Z,72.67
2017-11-22T10:43:11.148Z,74.11
2017-11-22T10:44:11.023Z,73.97
2017-11-22T10:45:11.057Z,75.18
2017-11-22T10:46:10.986Z,76.18
2017-11-22T10:47:11.071Z,75.85
2017-11-22T10:48:10.941Z,77.09
2017-11-22T10:49:10.980Z,76.81
2017-11-22T10:50:10.903Z,77.34
2017-11-22T10:51:10.995Z,77.06
2017-11-22T10:52:10.862Z,77.34
2017-11-22T10:53:10.920Z,78.49
2017-11-22T10:54:10.828Z,79.16
2017-11-22T10:55:10.817Z,78.58
2017-11-22T10:56:10.785Z,78.30
2017-11-22T10:57:10.834Z,77.44
2017-11-22T10:58:10.741Z,77.57
2017-11-22T10:59:10.748Z,76.71
2017-11-22T11:00:10.699Z,75.31
2017-11-22T11:01:10.759Z,73.57
2017-11-22T11:02:10.656Z,71.50
2017-11-22T11:03:10.671Z,69.84
2017-11-22T11:04:10.620Z,69.20
2017-11-22T11:05:10.685Z,66.74
2017-11-22T11:06:10.575Z,65.78
2017-11-22T11:07:10.597Z,64.05
2017-11-22T11:08:10.601Z,64.53
2017-11-22T11:09:10.521Z,65.05
2017-11-22T11:10:10.514Z,64.18
2017-11-22T11:11:10.478Z,64.05
2017-11-22T11:12:10.528Z,64.66
2017-11-22T11:13:10.444Z,63.12
2017-11-22T11:14:10.439Z,61.87
2017-11-22T11:15:10.404Z,62.96
2017-11-22T11:16:10.448Z,64.15
2017-11-22T11:17:10.369Z,64.25
2017-11-22T11:18:10.369Z,63.16
2017-11-22T11:19:10.352Z,64.85
2017-11-22T11:20:10.398Z,66.13
2017-11-22T11:21:10.300Z,64.79
2017-11-22T11:22:10.403Z,64.69
2017-11-22T11:23:10.268Z,65.20
2017-11-22T11:24:10.305Z,63.60
2017-11-22T11:25:10.237Z,61.61
2017-11-22T11:26:10.317Z,62.58
2017-11-22T11:27:10.196Z,63.09
2017-11-22T11:28:10.229Z,60.27
2017-11-22T11:29:10.172Z,57.80
2017-11-22T11:30:10.245Z,59.86
2017-11-22T11:31:10.137Z,61.68
2017-11-22T11:32:10.154Z,61.30
2017-11-22T11:33:10.116Z,61.87
2017-11-22T11:34:10.173Z,61.68
2017-11-22T11:35:10.080Z,61.33
2017-11-22T11:36:10.088Z,59.92
2017-11-22T11:37:10.045Z,60.11
2017-11-22T11:38:10.101Z,58.92
2017-11-22T11:39:10.024Z,59.72
2017-11-22T11:40:10.123Z,58.50
2017-11-22T11:41:09.988Z,57.35
2017-11-22T11:42:10.026Z,56.96
2017-11-22T11:43:09.963Z,58.15
2017-11-22T11:44:10.040Z,59.72
2017-11-22T11:45:09.942Z,59.20
2017-11-22T11:46:09.948Z,57.09
2017-11-22T11:47:09.912Z,55.93
2017-11-22T11:48:09.961Z,55.55
2017-11-22T11:49:09.887Z,56.22
2017-11-22T11:50:09.976Z,55.83
2017-11-22T11:51:09.863Z,56.25
2017-11-22T11:52:09.916Z,55.29
2017-11-22T11:53:09.835Z,54.85
2017-11-22T11:54:09.903Z,57.64
2017-11-22T11:55:09.813Z,57.28
2017-11-22T11:56:09.920Z,56.41
2017-11-22T11:57:09.788Z,55.83
2017-11-22T11:58:09.833Z,55.65
2017-11-22T11:59:09.769Z,56.00
2017-11-22T12:00:09.847Z,55.90
2017-11-22T12:01:09.741Z,56.65
2017-11-22T12:02:09.857Z,57.99
2017-11-22T12:03:09.724Z,57.22
2017-11-22T12:04:09.765Z,57.32
2017-11-22T12:05:09.744Z,57.92
2017-11-22T12:06:09.787Z,57.28
2017-11-22T12:07:09.681Z,55.81
2017-11-22T12:08:09.689Z,56.20
2017-11-22T12:09:09.655Z,57.25
2017-11-22T12:10:10.732Z,56.74
2017-11-22T12:11:09.632Z,57.54
2017-11-22T12:12:09.717Z,58.24
2017-11-22T12:13:09.617Z,57.21
2017-11-22T12:14:09.629Z,55.67
2017-11-22T12:15:09.593Z,56.37
2017-11-22T12:16:09.638Z,55.22
2017-11-22T12:17:09.570Z,53.91
2017-11-22T12:18:09.684Z,55.71
2017-11-22T12:19:09.540Z,56.77
2017-11-22T12:20:09.571Z,56.60
2017-11-22T12:21:09.550Z,56.60
2017-11-22T12:22:09.583Z,55.67
2017-11-22T12:23:09.505Z,55.77
2017-11-22T12:24:09.596Z,55.16
2017-11-22T12:25:09.492Z,55.01
2017-11-22T12:26:09.507Z,57.00
2017-11-22T12:27:09.469Z,58.15
2017-11-22T12:28:09.522Z,58.25
2017-11-22T12:29:09.441Z,58.51
2017-11-22T12:30:09.533Z,59.09
2017-11-22T12:31:09.420Z,59.64
2017-11-22T12:32:09.549Z,60.60
2017-11-22T12:33:09.402Z,60.88
2017-11-22T12:34:09.566Z,60.72
2017-11-22T12:35:09.383Z,59.66
2017-11-22T12:36:09.369Z,60.14
2017-11-22T12:37:09.479Z,59.66
2017-11-22T12:38:09.344Z,59.76
2017-11-22T12:39:09.495Z,60.43
2017-11-22T12:40:09.326Z,59.57
2017-11-22T12:41:09.511Z,58.70
2017-11-22T12:42:09.303Z,59.83
2017-11-22T12:43:09.418Z,59.92
2017-11-22T12:44:09.281Z,60.57
2017-11-22T12:45:09.436Z,60.57
2017-11-22T12:46:09.262Z,61.05
2017-11-22T12:47:09.348Z,61.33
2017-11-22T12:48:09.263Z,61.91
2017-11-22T12:49:09.264Z,60.60
2017-11-22T12:50:09.205Z,62.04
2017-11-22T12:51:09.272Z,59.83
2017-11-22T12:52:09.189Z,60.11
2017-11-22T12:53:09.286Z,59.83
2017-11-22T12:54:09.163Z,59.80
2017-11-22T12:55:09.303Z,61.91
2017-11-22T12:56:09.133Z,61.65